createdAt,value
2023-01-11T00:02:05.801Z,52.16
2023-01-11T00:07:07.736Z,51.65
2023-01-11T00:12:12.426Z,52.03
2023-01-11T00:17:14.403Z,51.83
2023-01-11T00:22:16.403Z,51.95
2023-01-11T00:27:18.289Z,51.99
2023-01-11T00:32:20.284Z,51.58
2023-01-11T00:37:22.287Z,51.36
2023-01-11T00:42:42.703Z,51.79
2023-01-11T00:48:04.985Z,51.39
2023-01-11T00:53:08.434Z,51.61
2023-01-11T00:58:10.441Z,51.60
2023-01-11T01:03:12.327Z,52.11
2023-01-11T01:08:14.114Z,51.35
2023-01-11T01:13:34.418Z,51.32
2023-01-11T01:18:36.220Z,51.34
2023-01-11T01:23:38.300Z,51.61
2023-01-11T01:28:40.192Z,51.84
2023-01-11T01:33:42.201Z,51.74
2023-01-11T01:38:43.992Z,51.61
2023-01-11T01:43:58.094Z,51.59
2023-01-11T01:49:13.784Z,51.20
2023-01-11T01:54:22.528Z,51.38
2023-01-11T01:59:26.719Z,51.78
2023-01-11T02:04:32.893Z,51.67
2023-01-11T02:09:56.923Z,51.85
2023-01-11T02:15:01.529Z,51.67
2023-01-11T02:20:12.483Z,51.27
2023-01-11T02:25:26.251Z,51.50
2023-01-11T02:30:54.761Z,52.05
2023-01-11T02:36:05.860Z,52.27
2023-01-11T02:41:24.733Z,52.25
2023-01-11T02:46:42.105Z,52.31
2023-01-11T02:51:59.290Z,52.08
2023-01-11T02:57:02.790Z,52.68
2023-01-11T03:02:05.004Z,52.06
2023-01-11T03:07:31.798Z,52.34
2023-01-11T03:13:04.628Z,52.21
2023-01-11T03:18:40.461Z,52.37
2023-01-11T03:23:49.473Z,52.58
2023-01-11T03:29:19.579Z,52.69
2023-01-11T03:34:49.386Z,53.52
2023-01-11T03:40:04.518Z,53.58
2023-01-11T03:45:06.934Z,53.85
2023-01-11T03:50:13.636Z,53.96
2023-01-11T03:55:16.947Z,54.02
2023-01-11T04:00:23.365Z,53.51
2023-01-11T04:05:25.931Z,53.34
2023-01-11T04:10:28.096Z,54.12
2023-01-11T04:15:35.139Z,54.30
2023-01-11T04:20:40.821Z,54.56
2023-01-11T04:25:42.669Z,54.48
2023-01-11T04:30:44.687Z,54.41
2023-01-11T04:35:47.252Z,54.47
2023-01-11T04:40:48.993Z,54.58
2023-01-11T04:45:50.735Z,54.66
2023-01-11T04:50:52.898Z,54.92
2023-01-11T04:55:54.659Z,54.55
2023-01-11T05:00:56.669Z,54.75
2023-01-11T05:06:00.365Z,54.95
2023-01-11T05:11:04.877Z,54.48
2023-01-11T05:16:07.336Z,55.19
2023-01-11T05:21:10.897Z,54.69
2023-01-11T05:26:18.893Z,55.01
2023-01-11T05:31:20.807Z,54.73
2023-01-11T05:36:24.338Z,54.90
2023-01-11T05:41:27.529Z,54.88
2023-01-11T05:46:29.842Z,54.98
2023-01-11T05:51:32.790Z,55.17
2023-01-11T05:56:34.864Z,54.98
2023-01-11T06:01:36.764Z,55.39
2023-01-11T06:06:38.602Z,55.60
2023-01-11T06:11:40.413Z,55.04
2023-01-11T06:16:42.315Z,55.41
2023-01-11T06:21:44.192Z,55.37
2023-01-11T06:26:45.964Z,55.40
2023-01-11T06:31:48.009Z,55.85
2023-01-11T06:36:49.768Z,55.61
2023-01-11T06:41:51.500Z,55.64
2023-01-11T06:46:53.525Z,55.84
2023-01-11T06:51:55.354Z,56.27
2023-01-11T06:56:57.021Z,56.09
2023-01-11T07:01:59.300Z,55.91
2023-01-11T07:07:01.267Z,56.08
2023-01-11T07:12:03.240Z,56.11
2023-01-11T07:17:05.145Z,56.66
2023-01-11T07:22:08.165Z,56.28
2023-01-11T07:27:09.915Z,56.56
2023-01-11T07:32:11.838Z,56.58
2023-01-11T07:37:28.145Z,56.52
2023-01-11T07:42:49.705Z,56.43
2023-01-11T07:47:54.141Z,56.37
2023-01-11T07:52:55.983Z,56.30
2023-01-11T07:57:57.888Z,56.30
2023-01-11T08:03:00.719Z,56.42
2023-01-11T08:08:02.889Z,56.10
2023-01-11T08:13:23.108Z,56.16
2023-01-11T08:18:25.080Z,56.42
2023-01-11T08:23:27.431Z,56.58
2023-01-11T08:28:29.251Z,56.11
2023-01-11T08:33:30.989Z,56.55
2023-01-11T08:38:32.939Z,56.82
2023-01-11T08:43:34.844Z,56.22
2023-01-11T08:48:37.040Z,56.46
2023-01-11T08:53:39.032Z,56.23
2023-01-11T08:58:40.814Z,56.44
2023-01-11T09:03:42.556Z,56.62
2023-01-11T09:08:44.519Z,56.69
2023-01-11T09:13:46.619Z,56.99
2023-01-11T09:18:48.479Z,56.67
2023-01-11T09:23:50.386Z,56.67
2023-01-11T09:28:52.217Z,56.88
2023-01-11T09:33:54.338Z,56.60
2023-01-11T09:38:58.002Z,57.42
2023-01-11T09:44:16.703Z,57.43
2023-01-11T09:49:28.315Z,57.24
2023-01-11T09:54:30.151Z,57.08
2023-01-11T09:59:50.852Z,57.10
2023-01-11T10:05:26.217Z,57.15
2023-01-11T10:18:40.004Z,57.30
2023-01-11T10:22:00.559Z,57.58
2023-01-11T10:27:04.242Z,57.40
2023-01-11T10:32:34.891Z,57.89
2023-01-11T10:38:02.736Z,57.70
2023-01-11T10:43:22.797Z,57.70
2023-01-11T10:48:35.764Z,57.69
2023-01-11T10:54:14.522Z,58.22
2023-01-11T10:59:38.243Z,57.84
2023-01-11T11:05:05.223Z,57.62
2023-01-11T11:10:14.518Z,57.84
2023-01-11T11:15:41.153Z,57.38
2023-01-11T11:20:44.309Z,57.60
2023-01-11T11:25:56.304Z,57.65
2023-01-11T11:31:02.863Z,57.97
2023-01-11T11:36:13.507Z,57.68
2023-01-11T11:41:17.414Z,57.69
2023-01-11T11:46:26.628Z,57.90
2023-01-11T11:51:28.715Z,57.21
2023-01-11T11:56:41.430Z,57.49
2023-01-11T12:01:47.768Z,57.62
2023-01-11T12:07:17.205Z,57.58
2023-01-11T12:12:22.552Z,57.50
2023-01-11T12:17:26.749Z,57.36
2023-01-11T12:22:29.387Z,57.54
2023-01-11T12:27:58.581Z,57.75
2023-01-11T12:33:22.371Z,57.89
2023-01-11T12:38:30.779Z,58.00
2023-01-11T12:43:38.891Z,58.21
2023-01-11T12:48:55.091Z,58.16
2023-01-11T12:54:30.865Z,58.20
2023-01-11T13:00:06.485Z,58.04
2023-01-11T13:05:15.531Z,58.09
2023-01-11T13:10:31.500Z,58.32
2023-01-11T13:15:44.075Z,58.46
2023-01-11T13:21:01.788Z,58.42
2023-01-11T13:26:16.744Z,58.18
2023-01-11T13:31:19.600Z,58.48
2023-01-11T13:36:28.969Z,58.58
2023-01-11T13:41:38.249Z,58.51
2023-01-11T13:47:08.243Z,58.29
2023-01-11T13:52:28.462Z,58.57
2023-01-11T13:57:35.599Z,58.60
2023-01-11T14:02:46.718Z,58.77
2023-01-11T14:07:48.250Z,58.64
2023-01-11T14:13:14.494Z,58.69
2023-01-11T14:18:40.079Z,58.62
2023-01-11T14:23:51.884Z,58.65
2023-01-11T14:29:27.802Z,58.65
2023-01-11T14:34:51.373Z,58.58
2023-01-11T14:40:18.155Z,58.83
2023-01-11T14:45:43.348Z,58.99
2023-01-11T14:51:20.901Z,59.01
2023-01-11T14:56:37.626Z,58.87
2023-01-11T15:02:04.474Z,59.09
2023-01-11T15:07:34.023Z,59.01
2023-01-11T15:12:38.595Z,59.18
2023-01-11T15:18:00.776Z,59.24
2023-01-11T15:23:05.986Z,59.23
2023-01-11T15:28:46.312Z,59.05
2023-01-11T15:33:49.089Z,59.11
2023-01-11T15:39:03.138Z,58.98
2023-01-11T15:44:33.547Z,59.02
2023-01-11T15:49:38.241Z,58.84
2023-01-11T15:54:51.147Z,59.08
2023-01-11T16:00:17.880Z,59.39
2023-01-11T16:05:31.237Z,59.41
2023-01-11T16:10:44.848Z,59.40
2023-01-11T16:15:55.306Z,59.73
2023-01-11T16:21:08.193Z,59.92
2023-01-11T16:26:17.159Z,59.91
2023-01-11T16:31:20.243Z,60.19
2023-01-11T16:36:24.060Z,60.26
2023-01-11T16:41:30.775Z,60.42
2023-01-11T16:46:47.717Z,60.40
2023-01-11T16:51:49.546Z,60.59
2023-01-11T16:56:51.703Z,60.64
2023-01-11T17:01:59.090Z,60.84
2023-01-11T17:07:25.260Z,60.92
2023-01-11T17:12:27.497Z,60.98
2023-01-11T17:17:35.656Z,61.07
2023-01-11T17:22:38.187Z,60.93
2023-01-11T17:27:50.994Z,60.84
2023-01-11T17:32:55.427Z,60.71
2023-01-11T17:37:59.858Z,60.71
2023-01-11T17:43:40.176Z,60.73
2023-01-11T17:48:55.843Z,60.57
2023-01-11T17:53:58.379Z,60.65
2023-01-11T17:59:24.323Z,60.69
2023-01-11T18:04:27.794Z,60.89
2023-01-11T18:09:32.140Z,60.65
2023-01-11T18:14:47.195Z,60.69
2023-01-11T18:19:48.986Z,60.80
2023-01-11T18:24:55.252Z,60.78
2023-01-11T18:30:01.810Z,60.54
2023-01-11T18:35:04.284Z,60.75
2023-01-11T18:40:10.905Z,60.70
2023-01-11T18:45:14.042Z,60.73
2023-01-11T18:50:19.362Z,61.24
2023-01-11T18:55:23.176Z,60.84
2023-01-11T19:00:25.235Z,61.00
2023-01-11T19:05:27.539Z,60.92
2023-01-11T19:10:29.703Z,60.62
2023-01-11T19:15:34.687Z,60.91
2023-01-11T19:20:37.594Z,61.15
2023-01-11T19:25:39.464Z,61.06
2023-01-11T19:30:41.452Z,61.01
2023-01-11T19:35:44.565Z,60.75
2023-01-11T19:40:48.450Z,60.63
2023-01-11T19:45:58.324Z,60.51
2023-01-11T19:51:10.251Z,60.63
2023-01-11T19:56:12.351Z,60.68
2023-01-11T20:01:14.641Z,60.60
2023-01-11T20:06:16.691Z,60.39
2023-01-11T20:11:19.653Z,60.37
2023-01-11T20:16:23.738Z,60.41
2023-01-11T20:21:28.921Z,60.21
2023-01-11T20:26:34.362Z,60.14
2023-01-11T20:31:36.403Z,60.21
2023-01-11T20:36:38.316Z,60.22
2023-01-11T20:41:49.789Z,60.15
2023-01-11T20:46:52.735Z,59.95
2023-01-11T20:51:54.612Z,60.20
2023-01-11T20:57:02.261Z,60.07
2023-01-11T21:02:04.321Z,60.16
2023-01-11T21:07:06.144Z,60.13
2023-01-11T21:12:09.528Z,59.99
2023-01-11T21:17:11.719Z,59.78
2023-01-11T21:22:13.891Z,60.14
2023-01-11T21:27:16.018Z,60.12
2023-01-11T21:32:17.923Z,60.07
2023-01-11T21:37:24.136Z,60.15
2023-01-11T21:42:26.183Z,60.04
2023-01-11T21:47:28.257Z,60.05
2023-01-11T21:52:30.260Z,59.88
2023-01-11T21:57:32.358Z,59.91
2023-01-11T22:02:34.147Z,59.99
2023-01-11T22:07:38.457Z,59.80
2023-01-11T22:12:40.658Z,59.96
2023-01-11T22:17:42.681Z,59.64
2023-01-11T22:22:44.799Z,59.18
2023-01-11T22:27:46.615Z,59.21
2023-01-11T22:32:48.797Z,59.29
2023-01-11T22:37:51.174Z,59.23
2023-01-11T22:42:53.431Z,59.11
2023-01-11T22:47:56.622Z,59.02
2023-01-11T22:52:58.584Z,58.98
2023-01-11T22:58:00.511Z,58.65
2023-01-11T23:03:03.287Z,58.91
2023-01-11T23:08:05.815Z,58.88
2023-01-11T23:13:29.501Z,58.70
2023-01-11T23:18:31.400Z,58.59
2023-01-11T23:23:33.733Z,58.93
2023-01-11T23:28:35.888Z,58.46
2023-01-11T23:33:38.174Z,58.89
2023-01-11T23:38:40.222Z,58.71
2023-01-11T23:43:42.058Z,58.50
2023-01-11T23:48:43.866Z,58.36
2023-01-11T23:53:45.914Z,58.31
2023-01-11T23:58:47.799Z,58.12
